createdAt,value
2018-04-18T01:03:22.111Z,40.19
2018-04-18T01:05:50.013Z,40.34
2018-04-18T01:08:16.800Z,40.25
2018-04-18T01:10:43.389Z,40.29
2018-04-18T01:13:09.951Z,40.25
2018-04-18T01:15:36.477Z,40.63
2018-04-18T01:18:03.039Z,40.36
2018-04-18T01:20:29.688Z,40.02
2018-04-18T01:22:56.382Z,40.20
2018-04-18T01:25:22.971Z,40.08
2018-04-18T01:27:50.672Z,40.14
2018-04-18T01:30:17.381Z,39.97
2018-04-18T01:32:44.144Z,39.68
2018-04-18T01:35:10.876Z,39.74
2018-04-18T01:37:38.317Z,39.51
2018-04-18T01:40:05.025Z,39.39
2018-04-18T01:42:31.705Z,39.27
2018-04-18T01:44:58.378Z,39.27
2018-04-18T01:47:25.104Z,39.15
2018-04-18T01:49:51.668Z,39.06
2018-04-18T01:52:18.212Z,38.90
2018-04-18T01:54:44.763Z,39.00
2018-04-18T01:57:11.376Z,38.84
2018-04-18T01:59:37.964Z,38.97
2018-04-18T02:02:04.979Z,38.96
2018-04-18T02:04:31.757Z,38.76
2018-04-18T02:06:58.691Z,38.79
2018-04-18T02:09:25.530Z,38.60
2018-04-18T02:11:52.143Z,38.67
2018-04-18T02:14:18.751Z,38.55
2018-04-18T02:16:45.335Z,38.57
2018-04-18T02:19:11.870Z,38.65
2018-04-18T02:21:38.409Z,38.52
2018-04-18T02:24:05.294Z,38.39
2018-04-18T02:26:31.855Z,38.37
2018-04-18T02:28:58.397Z,38.33
2018-04-18T02:31:25.081Z,38.22
2018-04-18T02:33:51.599Z,38.21
2018-04-18T02:36:18.159Z,38.11
2018-04-18T02:38:44.734Z,38.14
2018-04-18T02:41:11.351Z,38.08
2018-04-18T02:43:37.872Z,38.14
2018-04-18T02:46:05.227Z,38.14
2018-04-18T02:48:31.807Z,38.05
2018-04-18T02:50:58.315Z,38.12
2018-04-18T02:53:25.073Z,37.77
2018-04-18T02:55:51.618Z,37.66
2018-04-18T02:58:18.120Z,37.50
2018-04-18T03:00:44.680Z,37.75
2018-04-18T03:03:11.326Z,37.51
2018-04-18T03:05:38.372Z,37.82
2018-04-18T03:08:05.903Z,37.90
2018-04-18T03:10:34.155Z,37.78
2018-04-18T03:13:01.141Z,37.66
2018-04-18T03:15:27.844Z,37.55
2018-04-18T03:17:54.373Z,37.46
2018-04-18T03:20:20.944Z,37.31
2018-04-18T03:22:47.646Z,37.32
2018-04-18T03:25:14.258Z,37.17
2018-04-18T03:27:40.806Z,37.02
2018-04-18T03:30:07.467Z,37.07
2018-04-18T03:32:34.008Z,37.63
2018-04-18T03:35:00.932Z,37.71
2018-04-18T03:37:27.458Z,37.67
2018-04-18T03:39:54.045Z,37.67
2018-04-18T03:42:20.601Z,37.64
2018-04-18T03:44:47.221Z,37.49
2018-04-18T03:47:14.055Z,37.47
2018-04-18T03:49:40.594Z,37.49
2018-04-18T03:52:07.219Z,37.55
2018-04-18T03:54:33.772Z,37.56
2018-04-18T03:57:00.467Z,37.53
2018-04-18T03:59:27.136Z,37.49
2018-04-18T04:01:53.481Z,37.50
2018-04-18T04:04:19.844Z,37.54
2018-04-18T04:06:46.171Z,37.65
2018-04-18T04:09:12.540Z,37.43
2018-04-18T04:11:38.857Z,37.52
2018-04-18T04:14:05.268Z,37.26
2018-04-18T04:16:31.732Z,37.27
2018-04-18T04:18:58.048Z,37.25
2018-04-18T04:21:24.420Z,37.23
2018-04-18T04:23:50.811Z,37.31
2018-04-18T04:26:17.181Z,36.96
2018-04-18T04:28:43.565Z,37.06
2018-04-18T04:31:10.044Z,36.92
2018-04-18T04:33:36.432Z,36.47
2018-04-18T04:36:02.780Z,36.69
2018-04-18T04:38:29.108Z,36.53
2018-04-18T04:40:55.483Z,36.49
2018-04-18T04:43:21.880Z,36.63
2018-04-18T04:45:48.209Z,36.60
2018-04-18T04:48:14.593Z,36.27
2018-04-18T04:50:41.078Z,36.01
2018-04-18T04:53:07.444Z,35.99
2018-04-18T04:55:33.786Z,35.86
2018-04-18T04:58:00.151Z,35.25
2018-04-18T05:00:26.693Z,35.62
2018-04-18T05:02:53.088Z,35.76
2018-04-18T05:05:19.623Z,35.41
2018-04-18T05:07:45.948Z,35.56
2018-04-18T05:10:12.428Z,35.30
2018-04-18T05:12:38.785Z,35.16
2018-04-18T05:15:05.176Z,35.14
2018-04-18T05:17:31.568Z,35.17
2018-04-18T05:19:58.074Z,35.21
2018-04-18T05:22:24.570Z,35.15
2018-04-18T05:24:51.059Z,35.00
2018-04-18T05:27:17.545Z,34.85
2018-04-18T05:29:43.961Z,34.88
2018-04-18T05:32:10.642Z,34.79
2018-04-18T05:34:37.072Z,35.21
2018-04-18T05:37:04.401Z,34.91
2018-04-18T05:39:30.937Z,35.01
2018-04-18T05:41:57.518Z,34.99
2018-04-18T05:44:24.304Z,34.68
2018-04-18T05:46:50.865Z,34.75
2018-04-18T05:49:17.443Z,35.17
2018-04-18T05:51:43.932Z,35.42
2018-04-18T05:54:10.419Z,35.29
2018-04-18T05:56:36.867Z,35.46
2018-04-18T05:59:03.260Z,35.56
2018-04-18T06:01:29.628Z,35.22
2018-04-18T06:03:56.097Z,35.31
2018-04-18T06:06:22.749Z,35.21
2018-04-18T06:08:49.210Z,35.67
2018-04-18T06:11:16.227Z,36.59
2018-04-18T06:13:42.722Z,35.81
2018-04-18T06:16:09.217Z,36.34
2018-04-18T06:18:35.912Z,35.72
2018-04-18T06:21:02.645Z,35.77
2018-04-18T06:23:29.064Z,35.70
2018-04-18T06:25:55.435Z,35.60
2018-04-18T06:28:21.922Z,35.59
2018-04-18T06:30:48.497Z,35.68
2018-04-18T06:33:15.222Z,35.81
2018-04-18T06:35:41.973Z,35.67
2018-04-18T06:38:09.431Z,35.79
2018-04-18T06:40:36.113Z,35.39
2018-04-18T06:43:02.523Z,35.80
2018-04-18T06:45:28.937Z,35.92
2018-04-18T06:47:55.379Z,35.80
2018-04-18T06:50:21.799Z,35.79
2018-04-18T06:52:48.217Z,35.71
2018-04-18T06:55:14.822Z,36.31
2018-04-18T06:57:41.190Z,35.99
2018-04-18T07:00:07.804Z,35.84
2018-04-18T07:02:34.284Z,36.35
2018-04-18T07:05:00.696Z,36.10
2018-04-18T07:07:27.134Z,36.31
2018-04-18T07:09:53.499Z,36.24
2018-04-18T07:12:19.984Z,36.00
2018-04-18T07:14:46.356Z,36.44
2018-04-18T07:17:12.907Z,36.53
2018-04-18T07:19:39.340Z,36.04
2018-04-18T07:22:05.689Z,36.21
2018-04-18T07:24:32.072Z,36.37
2018-04-18T07:26:58.689Z,36.37
2018-04-18T07:29:25.878Z,36.53
2018-04-18T07:31:52.754Z,36.69
2018-04-18T07:34:19.568Z,36.49
2018-04-18T07:36:46.563Z,36.45
2018-04-18T07:39:13.632Z,36.46
2018-04-18T07:41:40.321Z,36.67
2018-04-18T07:44:07.261Z,36.35
2018-04-18T07:46:33.730Z,36.23
2018-04-18T07:49:00.791Z,36.33
2018-04-18T07:51:28.053Z,36.31
2018-04-18T07:53:55.979Z,36.59
2018-04-18T07:56:23.767Z,36.48
2018-04-18T07:58:50.385Z,36.66
2018-04-18T08:01:17.284Z,36.61
2018-04-18T08:03:43.885Z,36.73
2018-04-18T08:06:10.522Z,36.96
2018-04-18T08:08:46.919Z,37.04
2018-04-18T08:11:13.769Z,36.70
2018-04-18T08:13:40.322Z,37.03
2018-04-18T08:16:07.017Z,36.89
2018-04-18T08:18:33.576Z,37.18
2018-04-18T08:21:00.096Z,36.75
2018-04-18T08:23:26.949Z,36.42
2018-04-18T08:25:53.582Z,36.63
2018-04-18T08:28:20.134Z,37.02
2018-04-18T08:30:46.716Z,36.97
2018-04-18T08:33:13.219Z,36.94
2018-04-18T08:35:39.751Z,36.35
2018-04-18T08:38:07.044Z,36.18
2018-04-18T08:40:33.487Z,36.67
2018-04-18T08:42:59.880Z,36.72
2018-04-18T08:45:26.233Z,36.38
2018-04-18T08:47:52.574Z,36.25
2018-04-18T08:50:19.003Z,36.42
2018-04-18T08:52:45.427Z,36.35
2018-04-18T08:55:11.794Z,35.99
2018-04-18T08:57:38.224Z,36.18
2018-04-18T09:00:04.729Z,36.49
2018-04-18T09:02:31.485Z,36.54
2018-04-18T09:07:18.683Z,36.37
2018-04-18T09:09:45.430Z,36.73
2018-04-18T09:12:12.207Z,36.51
2018-04-18T09:14:38.883Z,36.28
2018-04-18T09:17:06.002Z,36.31
2018-04-18T09:19:32.622Z,36.16
2018-04-18T09:21:59.125Z,36.14
2018-04-18T09:24:25.657Z,36.51
2018-04-18T09:26:52.239Z,36.54
2018-04-18T09:29:18.775Z,36.75
2018-04-18T09:31:45.385Z,36.59
2018-04-18T09:34:11.876Z,36.37
2018-04-18T09:36:38.356Z,36.35
2018-04-18T09:39:04.838Z,36.17
2018-04-18T09:41:31.322Z,36.16
2018-04-18T09:43:57.960Z,36.24
2018-04-18T09:46:24.522Z,36.24
2018-04-18T09:48:51.756Z,35.99
2018-04-18T09:51:18.208Z,36.11
2018-04-18T09:53:44.681Z,35.96
2018-04-18T09:56:11.207Z,35.73
2018-04-18T09:58:37.557Z,35.90
2018-04-18T10:01:04.116Z,35.97
2018-04-18T10:03:30.477Z,36.03
2018-04-18T10:05:57.521Z,36.04
2018-04-18T10:08:24.644Z,36.23
2018-04-18T10:10:51.865Z,35.70
2018-04-18T10:13:18.750Z,35.85
2018-04-18T10:15:45.414Z,36.08
2018-04-18T10:18:11.859Z,36.23
2018-04-18T10:20:38.760Z,35.69
2018-04-18T10:23:05.414Z,35.69
2018-04-18T10:25:31.933Z,35.77
2018-04-18T10:27:58.487Z,35.79
2018-04-18T10:30:24.998Z,35.58
2018-04-18T10:32:51.417Z,35.29
2018-04-18T10:35:17.880Z,35.58
2018-04-18T10:37:45.422Z,35.69
2018-04-18T10:40:12.008Z,35.73
2018-04-18T10:42:38.592Z,35.93
2018-04-18T10:45:05.262Z,35.51
2018-04-18T10:47:32.000Z,35.82
2018-04-18T10:49:58.851Z,35.91
2018-04-18T10:52:25.466Z,35.91
2018-04-18T10:54:52.119Z,35.72
2018-04-18T10:57:18.879Z,35.80
2018-04-18T10:59:47.963Z,35.82
2018-04-18T11:02:14.897Z,35.57
2018-04-18T11:04:41.342Z,35.51
2018-04-18T11:07:08.013Z,35.82
2018-04-18T11:09:34.647Z,35.85
2018-04-18T11:12:01.458Z,35.91
2018-04-18T11:14:28.689Z,35.80
2018-04-18T11:16:55.336Z,35.74
2018-04-18T11:19:21.995Z,35.55
2018-04-18T11:21:48.604Z,35.63
2018-04-18T11:24:15.238Z,35.55
2018-04-18T11:26:41.672Z,35.77
2018-04-18T11:29:08.286Z,35.55
2018-04-18T11:31:34.837Z,35.66
2018-04-18T11:34:01.343Z,35.85
2018-04-18T11:36:27.745Z,35.83
2018-04-18T11:38:54.204Z,35.64
2018-04-18T11:41:20.713Z,35.46
2018-04-18T11:43:47.072Z,35.33
2018-04-18T11:46:14.480Z,35.36
2018-04-18T11:48:41.342Z,35.65
2018-04-18T11:51:08.933Z,35.98
2018-04-18T11:53:36.372Z,35.58
2018-04-18T11:56:03.385Z,35.34
2018-04-18T11:58:31.413Z,35.28
2018-04-18T12:00:59.409Z,35.37
2018-04-18T12:03:27.251Z,34.83
2018-04-18T12:10:58.703Z,35.99
2018-04-18T12:13:25.328Z,35.35
2018-04-18T12:15:51.895Z,35.71
2018-04-18T12:18:18.628Z,35.87
2018-04-18T12:20:45.499Z,35.70
2018-04-18T12:23:12.650Z,35.56
2018-04-18T12:25:39.579Z,36.00
2018-04-18T12:28:06.153Z,36.19
2018-04-18T12:30:40.267Z,36.20
2018-04-18T12:33:06.818Z,35.67
2018-04-18T12:35:33.352Z,35.30
2018-04-18T12:37:59.757Z,36.13
2018-04-18T12:51:07.884Z,36.43
2018-04-18T12:53:34.637Z,36.31
2018-04-18T12:56:01.199Z,36.00
2018-04-18T12:58:27.991Z,36.21
2018-04-18T13:11:30.205Z,35.92
2018-04-18T13:13:57.539Z,35.90
2018-04-18T13:16:24.344Z,36.08
2018-04-18T13:18:51.038Z,35.82
2018-04-18T13:21:17.518Z,36.12
2018-04-18T13:23:44.366Z,35.98
2018-04-18T13:26:11.279Z,36.45
2018-04-18T13:28:38.438Z,36.11
2018-04-18T13:31:05.217Z,36.02
2018-04-18T13:33:33.621Z,35.96
2018-04-18T13:36:03.567Z,36.21
2018-04-18T13:38:30.470Z,36.63
2018-04-18T13:40:57.593Z,35.92
2018-04-18T13:43:26.563Z,36.36
2018-04-18T13:45:55.553Z,36.00
2018-04-18T13:48:22.385Z,36.22
2018-04-18T13:50:49.263Z,36.20
2018-04-18T13:53:15.943Z,36.42
2018-04-18T13:55:42.350Z,36.80
2018-04-18T13:58:08.818Z,36.67
2018-04-18T14:00:35.291Z,36.88
2018-04-18T14:03:01.793Z,36.80
2018-04-18T14:05:28.217Z,36.84
2018-04-18T14:07:54.736Z,36.57
2018-04-18T14:10:21.310Z,36.81
2018-04-18T14:12:47.905Z,36.48
2018-04-18T14:15:14.507Z,36.43
2018-04-18T14:17:41.418Z,36.34
2018-04-18T14:20:08.106Z,36.54
2018-04-18T14:22:34.512Z,36.36
2018-04-18T14:25:01.507Z,36.27
2018-04-18T14:27:27.934Z,36.51
2018-04-18T14:29:54.476Z,36.54
2018-04-18T14:32:20.898Z,36.51
2018-04-18T14:34:47.492Z,36.66
2018-04-18T14:37:14.059Z,36.41
2018-04-18T14:39:40.512Z,36.44
2018-04-18T14:42:06.987Z,36.69
2018-04-18T14:44:33.352Z,36.44
2018-04-18T14:46:59.712Z,36.75
2018-04-18T14:49:26.122Z,36.58
2018-04-18T14:51:52.602Z,36.42
2018-04-18T14:54:19.021Z,36.59
2018-04-18T14:56:45.452Z,36.63
2018-04-18T14:59:12.087Z,36.25
2018-04-18T15:01:38.616Z,36.54
2018-04-18T15:04:05.007Z,36.73
2018-04-18T15:06:31.618Z,36.66
2018-04-18T15:08:58.024Z,36.69
2018-04-18T15:11:24.890Z,36.53
2018-04-18T15:13:51.446Z,36.99
2018-04-18T15:16:17.860Z,37.23
2018-04-18T15:18:44.204Z,37.19
2018-04-18T15:21:10.610Z,36.87
2018-04-18T15:23:37.019Z,36.64
2018-04-18T15:26:03.388Z,36.97
2018-04-18T15:28:29.837Z,37.04
2018-04-18T15:30:56.195Z,36.97
2018-04-18T15:33:22.559Z,37.12
2018-04-18T15:35:49.065Z,37.33
2018-04-18T15:38:15.565Z,37.44
2018-04-18T15:40:41.988Z,37.34
2018-04-18T15:43:08.483Z,37.38
2018-04-18T15:45:34.899Z,37.48
2018-04-18T15:48:01.266Z,37.29
2018-04-18T15:50:27.711Z,37.47
2018-04-18T15:52:54.312Z,37.65
2018-04-18T15:55:20.743Z,37.88
2018-04-18T15:57:47.064Z,37.70
2018-04-18T16:00:13.428Z,38.21
2018-04-18T16:02:40.073Z,38.23
2018-04-18T16:05:08.122Z,38.19
2018-04-18T16:07:34.494Z,38.45
2018-04-18T16:10:00.843Z,38.57
2018-04-18T16:12:27.188Z,38.48
2018-04-18T16:14:53.504Z,38.43
2018-04-18T16:17:19.872Z,38.56
2018-04-18T16:19:46.190Z,38.42
2018-04-18T16:22:12.553Z,38.38
2018-04-18T16:24:38.876Z,38.24
2018-04-18T16:27:05.268Z,38.35
2018-04-18T16:29:31.619Z,38.48
2018-04-18T16:31:57.992Z,38.52
2018-04-18T16:34:24.385Z,38.44
2018-04-18T16:36:50.884Z,38.44
2018-04-18T16:39:17.236Z,38.41
2018-04-18T16:41:43.677Z,38.31
2018-04-18T16:44:10.076Z,38.57
2018-04-18T16:46:36.523Z,38.56
2018-04-18T16:49:02.933Z,38.71
2018-04-18T16:51:29.318Z,38.63
2018-04-18T16:53:55.669Z,38.55
2018-04-18T16:56:22.047Z,38.80
2018-04-18T16:58:48.396Z,38.78
2018-04-18T17:01:14.722Z,38.66
2018-04-18T17:03:41.180Z,39.00
2018-04-18T17:06:07.583Z,38.99
2018-04-18T17:08:33.914Z,39.01
2018-04-18T17:11:00.473Z,38.86
2018-04-18T17:13:26.859Z,38.92
2018-04-18T17:15:53.473Z,38.73
2018-04-18T17:18:19.878Z,38.74
2018-04-18T17:20:46.235Z,38.66
2018-04-18T17:23:12.739Z,38.55
2018-04-18T17:25:39.057Z,38.54
2018-04-18T17:28:05.629Z,38.51
2018-04-18T17:30:31.958Z,38.47
2018-04-18T17:32:58.328Z,38.60
2018-04-18T17:35:24.671Z,38.53
2018-04-18T17:37:51.032Z,38.50
2018-04-18T17:40:17.689Z,38.50
2018-04-18T17:42:44.067Z,38.39
2018-04-18T17:45:10.405Z,38.43
2018-04-18T17:47:36.769Z,38.53
2018-04-18T17:50:03.160Z,38.64
2018-04-18T17:52:29.489Z,38.54
2018-04-18T17:54:55.854Z,38.54
2018-04-18T17:57:22.180Z,38.58
2018-04-18T17:59:48.523Z,38.59
2018-04-18T18:02:14.946Z,38.73
2018-04-18T18:04:41.317Z,38.69
2018-04-18T18:07:07.676Z,38.70
2018-04-18T18:09:34.168Z,38.75
2018-04-18T18:12:00.515Z,38.78
2018-04-18T18:14:26.939Z,38.77
2018-04-18T18:16:53.336Z,38.80
2018-04-18T18:19:19.678Z,38.76
2018-04-18T18:21:46.060Z,38.77
2018-04-18T18:24:12.520Z,38.71
2018-04-18T18:26:38.853Z,38.69
2018-04-18T18:29:05.323Z,38.65
2018-04-18T18:31:31.678Z,38.72
2018-04-18T18:33:58.087Z,38.67
2018-04-18T18:36:24.453Z,38.63
2018-04-18T18:38:50.909Z,38.69
2018-04-18T18:41:17.256Z,38.74
2018-04-18T18:43:43.696Z,38.79
2018-04-18T18:46:10.039Z,38.84
2018-04-18T18:48:36.412Z,38.83
2018-04-18T18:51:02.777Z,38.82
2018-04-18T18:53:29.098Z,38.94
2018-04-18T18:55:55.480Z,38.95
2018-04-18T18:58:21.812Z,38.96
2018-04-18T19:00:48.133Z,38.83
2018-04-18T19:03:14.508Z,39.05
2018-04-18T19:05:40.873Z,39.00
2018-04-18T19:08:07.246Z,38.97
2018-04-18T19:10:33.648Z,38.94
2018-04-18T19:13:00.040Z,38.96
2018-04-18T19:15:26.422Z,38.95
2018-04-18T19:17:52.757Z,38.92
2018-04-18T19:20:19.253Z,38.98
2018-04-18T19:22:45.575Z,38.98
2018-04-18T19:25:11.930Z,39.03
2018-04-18T19:27:38.308Z,38.98
2018-04-18T19:30:12.227Z,39.04
2018-04-18T19:32:38.539Z,38.99
2018-04-18T19:35:04.933Z,39.14
2018-04-18T19:47:37.199Z,39.03
2018-04-18T19:50:03.554Z,39.12
2018-04-18T19:52:29.912Z,38.93
2018-04-18T19:54:56.224Z,39.06
2018-04-18T19:57:22.548Z,39.06
2018-04-18T19:59:48.984Z,39.21
2018-04-18T20:02:15.300Z,39.17
2018-04-18T20:04:41.674Z,39.14
2018-04-18T20:07:08.681Z,39.22
2018-04-18T20:09:35.031Z,39.19
2018-04-18T20:12:01.389Z,39.28
2018-04-18T20:14:27.722Z,39.31
2018-04-18T20:16:54.396Z,39.20
2018-04-18T20:19:20.771Z,39.28
2018-04-18T20:21:47.120Z,39.47
2018-04-18T20:24:13.559Z,39.41
2018-04-18T20:26:39.967Z,39.54
2018-04-18T20:29:06.431Z,39.64
2018-04-18T20:31:32.866Z,39.75
2018-04-18T20:33:59.299Z,39.84
2018-04-18T20:36:25.690Z,39.98
2018-04-18T20:38:52.118Z,39.94
2018-04-18T20:41:18.487Z,39.83
2018-04-18T20:43:44.890Z,39.60
2018-04-18T20:46:11.255Z,39.55
2018-04-18T20:48:37.678Z,39.57
2018-04-18T20:51:04.199Z,39.72
2018-04-18T20:53:30.674Z,39.71
2018-04-18T20:55:57.053Z,39.90
2018-04-18T20:58:23.483Z,39.92
2018-04-18T21:06:00.415Z,39.92
2018-04-18T21:08:26.887Z,39.96
2018-04-18T21:21:27.558Z,40.02
2018-04-18T21:23:53.946Z,39.97
2018-04-18T21:26:20.359Z,39.99
2018-04-18T21:28:46.726Z,39.91
2018-04-18T21:31:13.093Z,39.97
2018-04-18T21:33:39.522Z,40.05
2018-04-18T21:36:05.936Z,39.99
2018-04-18T21:38:32.402Z,39.98
2018-04-18T21:40:58.982Z,40.02
2018-04-18T21:43:25.459Z,40.01
2018-04-18T21:45:51.902Z,39.97
2018-04-18T21:48:18.262Z,40.03
2018-04-18T21:50:44.629Z,40.10
2018-04-18T21:53:11.027Z,40.05
2018-04-18T21:55:37.437Z,40.06
2018-04-18T21:58:03.840Z,40.17
2018-04-18T22:00:30.271Z,39.99
2018-04-18T22:02:56.687Z,39.97
2018-04-18T22:05:23.116Z,40.00
2018-04-18T22:07:49.551Z,40.09
2018-04-18T22:10:15.957Z,39.98
2018-04-18T22:12:42.333Z,40.08
2018-04-18T22:15:08.702Z,40.10
2018-04-18T22:17:35.123Z,40.04
2018-04-18T22:20:01.707Z,40.08
2018-04-18T22:22:28.133Z,40.14
2018-04-18T22:24:54.509Z,40.04
2018-04-18T22:27:20.879Z,40.03
2018-04-18T22:29:47.314Z,40.03
2018-04-18T22:32:13.719Z,40.00
2018-04-18T22:34:40.125Z,40.03
2018-04-18T22:37:06.506Z,40.04
2018-04-18T22:39:33.046Z,40.14
2018-04-18T22:41:59.451Z,40.03
2018-04-18T22:44:25.853Z,40.06
2018-04-18T22:46:52.242Z,40.10
2018-04-18T22:49:18.798Z,40.09
2018-04-18T22:51:45.207Z,40.05
2018-04-18T22:54:11.592Z,39.98
2018-04-18T22:56:38.026Z,40.03
2018-04-18T22:59:04.430Z,40.10
2018-04-18T23:01:30.791Z,40.05
2018-04-18T23:03:57.298Z,40.11
2018-04-18T23:06:23.730Z,40.20
2018-04-18T23:08:50.098Z,40.17
2018-04-18T23:11:16.470Z,40.17
2018-04-18T23:13:42.846Z,40.18
2018-04-18T23:16:09.215Z,40.24
2018-04-18T23:18:35.678Z,40.23
2018-04-18T23:21:02.066Z,40.25
2018-04-18T23:23:28.555Z,40.27
2018-04-18T23:25:54.982Z,40.28
2018-04-18T23:28:21.342Z,40.24
2018-04-18T23:30:47.721Z,40.29
2018-04-18T23:33:14.123Z,40.20
2018-04-18T23:35:40.530Z,40.17
2018-04-18T23:38:06.928Z,40.26
2018-04-18T23:40:33.308Z,40.32
2018-04-18T23:42:59.708Z,40.28
2018-04-18T23:45:26.088Z,40.36
2018-04-18T23:47:52.472Z,40.17
2018-04-18T23:50:18.877Z,40.26
2018-04-18T23:52:45.255Z,40.26
2018-04-18T23:55:11.669Z,40.22
2018-04-18T23:57:38.262Z,40.24
